Time;durP1;ratioP1;P1;durP2;ratioP2;P2;SDS_P1;SDS_P2;PMS_P1;PMS_P2;Temp;Humidity;BMP_temperature;BMP_pressure;BME280_temperature;BME280_humidity;BME280_pressure;Samples;Min_cycle;Max_cycle;Signal;HPM_P1;HPM_P2
2021/12/23 00:01:54;;;;;;;54.30;45.70;;;;;;;;;;105687;1294;64743;-26
2021/12/23 00:04:21;;;;;;;53.40;42.70;;;;;;;;;;105867;1290;64782;-25
2021/12/23 00:06:48;;;;;;;58.30;47.10;;;;;;;;;;105905;1291;64818;-27
2021/12/23 00:09:14;;;;;;;53.40;44.60;;;;;;;;;;105890;1291;64994;-27
2021/12/23 00:11:42;;;;;;;51.90;44.70;;;;;;;;;;105919;1291;64882;-27
2021/12/23 00:14:10;;;;;;;53.10;43.30;;;;;;;;;;105648;1291;64884;-28
2021/12/23 00:24:40;;;;;;;50.60;42.10;;;;;;;;;;105903;1290;64828;-27
2021/12/23 00:27:07;;;;;;;49.90;42.60;;;;;;;;;;105936;1291;64867;-26
2021/12/23 00:29:34;;;;;;;47.80;41.40;;;;;;;;;;105680;1294;64821;-26
2021/12/23 00:32:05;;;;;;;50.00;41.70;;;;;;;;;;105646;1294;64844;-27
2021/12/23 00:34:32;;;;;;;47.50;41.30;;;;;;;;;;105908;1283;64772;-27
2021/12/23 00:37:01;;;;;;;45.80;40.80;;;;;;;;;;105715;1291;64864;-26
2021/12/23 00:39:29;;;;;;;46.50;40.20;;;;;;;;;;105892;1291;64695;-27
2021/12/23 00:42:05;;;;;;;43.70;39.00;;;;;;;;;;105810;1291;64864;-27
2021/12/23 00:44:36;;;;;;;47.40;40.30;;;;;;;;;;105901;1290;64872;-27
2021/12/23 00:47:03;;;;;;;46.50;39.50;;;;;;;;;;105800;1293;64777;-28
2021/12/23 00:49:30;;;;;;;46.90;39.70;;;;;;;;;;105883;1290;64742;-31
2021/12/23 00:51:58;;;;;;;45.60;39.20;;;;;;;;;;105640;1291;64871;-28
2021/12/23 00:54:25;;;;;;;44.10;38.90;;;;;;;;;;105603;1292;64927;-27
2021/12/23 00:56:53;;;;;;;44.00;38.50;;;;;;;;;;105902;1291;64850;-28
2021/12/23 00:59:20;;;;;;;43.90;39.10;;;;;;;;;;105903;1291;65914;-27
2021/12/23 01:01:47;;;;;;;43.10;37.70;;;;;;;;;;105700;1294;64747;-27
2021/12/23 01:04:15;;;;;;;41.50;37.10;;;;;;;;;;105891;1286;64848;-27
2021/12/23 01:06:42;;;;;;;41.30;35.90;;;;;;;;;;105661;1295;64751;-27
2021/12/23 01:09:09;;;;;;;42.50;36.70;;;;;;;;;;105903;1290;64863;-27
2021/12/23 01:11:36;;;;;;;42.80;36.50;;;;;;;;;;105909;1294;65962;-27
2021/12/23 01:19:26;;;;;;;39.10;34.20;;;;;;;;;;105748;1289;237025;-27
2021/12/23 01:21:53;;;;;;;38.10;33.90;;;;;;;;;;105892;1290;64771;-28
2021/12/23 01:24:21;;;;;;;41.10;35.00;;;;;;;;;;105907;1291;64771;-27
2021/12/23 01:26:48;;;;;;;39.00;34.40;;;;;;;;;;105717;1291;65047;-27
2021/12/23 01:29:15;;;;;;;38.40;34.20;;;;;;;;;;105922;1291;64880;-27
2021/12/23 01:31:43;;;;;;;38.30;34.10;;;;;;;;;;105901;1292;64845;-26
2021/12/23 01:34:10;;;;;;;37.40;33.10;;;;;;;;;;105935;1291;64700;-27
2021/12/23 01:36:37;;;;;;;38.20;32.60;;;;;;;;;;105925;1292;64806;-27
2021/12/23 01:39:04;;;;;;;36.90;32.40;;;;;;;;;;105897;1287;64923;-29
2021/12/23 01:41:31;;;;;;;36.10;31.80;;;;;;;;;;105856;1290;64762;-27
2021/12/23 01:43:58;;;;;;;35.60;31.90;;;;;;;;;;105874;1291;64783;-27
2021/12/23 01:46:25;;;;;;;35.50;31.70;;;;;;;;;;105897;1290;64781;-27
2021/12/23 01:48:52;;;;;;;33.90;29.90;;;;;;;;;;105906;1291;64749;-27
2021/12/23 01:51:20;;;;;;;34.70;30.40;;;;;;;;;;105810;1291;64700;-28
2021/12/23 01:53:47;;;;;;;34.60;29.70;;;;;;;;;;105902;1289;64779;-27
2021/12/23 01:56:15;;;;;;;34.60;30.40;;;;;;;;;;105659;1294;64873;-27
2021/12/23 01:58:42;;;;;;;33.60;29.20;;;;;;;;;;105714;1294;64852;-27
2021/12/23 02:01:09;;;;;;;35.00;30.30;;;;;;;;;;105899;1291;64745;-34
2021/12/23 02:03:37;;;;;;;34.40;29.90;;;;;;;;;;105904;1292;64953;-27
2021/12/23 02:06:03;;;;;;;33.40;29.80;;;;;;;;;;105902;1291;65032;-27
2021/12/23 02:08:34;;;;;;;33.80;29.60;;;;;;;;;;105879;1282;64840;-26
2021/12/23 02:11:02;;;;;;;32.80;28.50;;;;;;;;;;105921;1290;64948;-26
2021/12/23 02:13:29;;;;;;;31.90;28.50;;;;;;;;;;105885;1292;64951;-26
2021/12/23 02:15:56;;;;;;;31.70;27.70;;;;;;;;;;105825;1290;64816;-28
2021/12/23 02:18:23;;;;;;;31.80;27.70;;;;;;;;;;105668;1293;66368;-27
2021/12/23 02:20:50;;;;;;;31.20;26.90;;;;;;;;;;105829;1290;64741;-27
2021/12/23 02:23:17;;;;;;;33.10;27.10;;;;;;;;;;105835;1294;64796;-26
2021/12/23 02:25:44;;;;;;;29.40;26.20;;;;;;;;;;105920;1290;64864;-25
2021/12/23 02:28:18;;;;;;;33.10;25.80;;;;;;;;;;105702;1293;64748;-27
2021/12/23 02:30:45;;;;;;;29.80;26.10;;;;;;;;;;105825;1291;64757;-29
2021/12/23 02:33:12;;;;;;;30.70;26.10;;;;;;;;;;105833;1291;64758;-27
2021/12/23 02:35:39;;;;;;;30.40;26.40;;;;;;;;;;105842;1293;64795;-28
2021/12/23 02:38:06;;;;;;;28.50;24.50;;;;;;;;;;105895;1291;64834;-27
2021/12/23 02:40:38;;;;;;;28.10;24.60;;;;;;;;;;105884;1291;64740;-28
2021/12/23 02:43:08;;;;;;;28.00;24.40;;;;;;;;;;105932;1291;64794;-31
2021/12/23 02:45:35;;;;;;;27.50;24.00;;;;;;;;;;105922;1291;64742;-26
2021/12/23 02:48:02;;;;;;;28.90;24.30;;;;;;;;;;105944;1290;64839;-31
2021/12/23 02:50:30;;;;;;;27.00;24.10;;;;;;;;;;105949;1291;64923;-27
2021/12/23 02:52:58;;;;;;;28.30;23.70;;;;;;;;;;105905;1291;64840;-27
2021/12/23 02:55:25;;;;;;;28.30;24.30;;;;;;;;;;105897;1291;64829;-28
2021/12/23 02:57:52;;;;;;;28.10;24.20;;;;;;;;;;105897;1290;64993;-28
2021/12/23 03:00:20;;;;;;;26.90;23.00;;;;;;;;;;105824;1291;64741;-27
2021/12/23 03:02:47;;;;;;;26.70;23.10;;;;;;;;;;105908;1289;64892;-29
2021/12/23 03:05:14;;;;;;;26.60;22.70;;;;;;;;;;105905;1291;64852;-26
2021/12/23 03:07:41;;;;;;;27.00;22.50;;;;;;;;;;105884;1290;64872;-26
2021/12/23 03:10:09;;;;;;;25.90;22.20;;;;;;;;;;105616;1293;64811;-26
2021/12/23 03:12:36;;;;;;;26.50;22.00;;;;;;;;;;105912;1291;64868;-27
2021/12/23 03:15:03;;;;;;;25.00;21.20;;;;;;;;;;105898;1289;64868;-27
2021/12/23 03:17:31;;;;;;;25.40;21.40;;;;;;;;;;105936;1291;64852;-27
2021/12/23 03:19:58;;;;;;;24.80;21.40;;;;;;;;;;105902;1291;64768;-27
2021/12/23 03:22:25;;;;;;;24.20;21.00;;;;;;;;;;105927;1289;66533;-28
2021/12/23 03:24:52;;;;;;;25.00;21.60;;;;;;;;;;105698;1291;64915;-27
2021/12/23 03:27:19;;;;;;;23.10;20.60;;;;;;;;;;105906;1293;65968;-30
2021/12/23 03:29:45;;;;;;;23.70;20.70;;;;;;;;;;105925;1291;64806;-27
2021/12/23 03:32:12;;;;;;;24.70;20.50;;;;;;;;;;105888;1290;64968;-28
2021/12/23 03:34:39;;;;;;;23.80;20.10;;;;;;;;;;105878;1292;66034;-27
2021/12/23 03:37:06;;;;;;;22.90;18.90;;;;;;;;;;105906;1291;64768;-27
2021/12/23 03:39:33;;;;;;;24.60;19.40;;;;;;;;;;105897;1291;64732;-27
2021/12/23 03:42:00;;;;;;;23.40;20.20;;;;;;;;;;105897;1290;64979;-28
2021/12/23 03:44:27;;;;;;;22.50;18.80;;;;;;;;;;105897;1291;64736;-28
2021/12/23 03:46:54;;;;;;;23.80;19.50;;;;;;;;;;105906;1291;64930;-36
2021/12/23 03:49:21;;;;;;;22.20;19.70;;;;;;;;;;105877;1291;64743;-32
2021/12/23 03:51:47;;;;;;;21.20;18.00;;;;;;;;;;105681;1294;64742;-28
2021/12/23 03:54:14;;;;;;;20.60;18.10;;;;;;;;;;105824;1290;64846;-28
2021/12/23 03:56:41;;;;;;;22.00;18.30;;;;;;;;;;105899;1290;64801;-27
2021/12/23 03:59:08;;;;;;;20.20;17.30;;;;;;;;;;105886;1291;64702;-27
2021/12/23 04:01:35;;;;;;;21.60;18.90;;;;;;;;;;105911;1291;64848;-27
2021/12/23 04:04:02;;;;;;;20.70;17.80;;;;;;;;;;105574;1291;64956;-29
2021/12/23 04:06:29;;;;;;;20.80;18.10;;;;;;;;;;105922;1291;64739;-28
2021/12/23 04:08:57;;;;;;;20.90;17.60;;;;;;;;;;105649;1294;64690;-28
2021/12/23 04:11:24;;;;;;;20.40;17.10;;;;;;;;;;105874;1290;64919;-26
2021/12/23 04:13:53;;;;;;;21.00;17.20;;;;;;;;;;105941;1291;64776;-29
2021/12/23 04:16:20;;;;;;;19.90;17.00;;;;;;;;;;105911;1293;64809;-26
2021/12/23 04:18:50;;;;;;;20.60;17.00;;;;;;;;;;105842;1290;64776;-30
2021/12/23 04:21:18;;;;;;;19.90;16.90;;;;;;;;;;105823;1290;64961;-26
2021/12/23 04:23:45;;;;;;;21.20;17.10;;;;;;;;;;105609;1293;64856;-27
2021/12/23 04:26:12;;;;;;;18.80;16.00;;;;;;;;;;105727;1294;64841;-27
2021/12/23 04:28:46;;;;;;;20.60;15.90;;;;;;;;;;105931;1291;64820;-28
2021/12/23 04:31:18;;;;;;;18.50;16.20;;;;;;;;;;105833;1294;64870;-27
2021/12/23 04:33:46;;;;;;;20.90;16.80;;;;;;;;;;105925;1291;64798;-27
2021/12/23 04:36:13;;;;;;;18.40;15.40;;;;;;;;;;105885;1291;64876;-28
2021/12/23 04:38:42;;;;;;;20.90;17.10;;;;;;;;;;105701;1291;64940;-27
2021/12/23 04:41:09;;;;;;;21.60;16.90;;;;;;;;;;105896;1291;64966;-27
2021/12/23 04:43:37;;;;;;;21.30;16.30;;;;;;;;;;105831;1291;64831;-27
2021/12/23 04:46:04;;;;;;;19.40;15.40;;;;;;;;;;105836;1293;64855;-27
2021/12/23 04:48:31;;;;;;;18.20;15.50;;;;;;;;;;105829;1291;65386;-27
2021/12/23 04:50:58;;;;;;;18.40;14.70;;;;;;;;;;105888;1291;64817;-27
2021/12/23 04:53:25;;;;;;;17.40;14.20;;;;;;;;;;105934;1291;64993;-28
2021/12/23 04:55:52;;;;;;;18.10;14.80;;;;;;;;;;105827;1291;64868;-27
2021/12/23 04:58:19;;;;;;;18.40;15.30;;;;;;;;;;105885;1293;64741;-27
2021/12/23 05:00:48;;;;;;;19.50;14.60;;;;;;;;;;105657;1292;64885;-27
2021/12/23 05:03:15;;;;;;;16.70;14.00;;;;;;;;;;105839;1287;64868;-27
2021/12/23 05:05:42;;;;;;;17.90;14.70;;;;;;;;;;105793;1291;64856;-27
2021/12/23 05:08:09;;;;;;;18.10;15.00;;;;;;;;;;105910;1291;64866;-27
2021/12/23 05:10:36;;;;;;;16.90;13.60;;;;;;;;;;105897;1289;64896;-27
2021/12/23 05:13:03;;;;;;;17.90;14.20;;;;;;;;;;105895;1291;64858;-28
2021/12/23 05:15:31;;;;;;;16.70;14.10;;;;;;;;;;105814;1291;64862;-28
2021/12/23 05:17:58;;;;;;;16.00;14.10;;;;;;;;;;105875;1291;64741;-32
2021/12/23 05:20:25;;;;;;;18.30;14.20;;;;;;;;;;105301;1295;65328;-27
2021/12/23 05:22:52;;;;;;;17.50;13.90;;;;;;;;;;105797;1286;64817;-27
2021/12/23 05:25:19;;;;;;;17.10;13.90;;;;;;;;;;105812;1291;64847;-27
2021/12/23 05:27:47;;;;;;;16.80;13.00;;;;;;;;;;105793;1288;64889;-27
2021/12/23 05:30:15;;;;;;;16.80;13.80;;;;;;;;;;105876;1291;64901;-26
2021/12/23 05:32:43;;;;;;;17.50;14.00;;;;;;;;;;105931;1291;64878;-27
2021/12/23 05:35:11;;;;;;;19.20;13.60;;;;;;;;;;105924;1291;64838;-27
2021/12/23 05:37:38;;;;;;;18.30;14.00;;;;;;;;;;105652;1294;64840;-27
2021/12/23 05:40:06;;;;;;;18.00;14.10;;;;;;;;;;105861;1288;64986;-27
2021/12/23 05:42:33;;;;;;;17.70;13.40;;;;;;;;;;105934;1291;64854;-26
2021/12/23 05:45:00;;;;;;;17.80;13.50;;;;;;;;;;105665;1294;64832;-26
2021/12/23 05:47:27;;;;;;;18.10;13.90;;;;;;;;;;105884;1291;64731;-26
2021/12/23 05:49:54;;;;;;;19.90;14.10;;;;;;;;;;105900;1290;64710;-26
2021/12/23 05:52:21;;;;;;;19.20;13.70;;;;;;;;;;105915;1289;64916;-26
2021/12/23 05:54:48;;;;;;;18.80;14.10;;;;;;;;;;105921;1291;64742;-26
2021/12/23 05:57:15;;;;;;;17.40;13.40;;;;;;;;;;105608;1294;64820;-27
2021/12/23 05:59:42;;;;;;;19.70;14.20;;;;;;;;;;105700;1292;64862;-27
2021/12/23 06:02:09;;;;;;;17.80;13.40;;;;;;;;;;105914;1290;64805;-27
2021/12/23 06:04:36;;;;;;;20.60;14.00;;;;;;;;;;105847;1291;64842;-27
2021/12/23 06:07:05;;;;;;;18.60;13.40;;;;;;;;;;105912;1292;64764;-27
2021/12/23 06:09:32;;;;;;;17.40;13.10;;;;;;;;;;105746;1291;64859;-27
2021/12/23 06:11:59;;;;;;;17.60;13.90;;;;;;;;;;105893;1288;64767;-27
2021/12/23 06:14:26;;;;;;;16.60;11.90;;;;;;;;;;105918;1291;64909;-27
2021/12/23 06:16:53;;;;;;;17.00;12.40;;;;;;;;;;105800;1291;64834;-27
2021/12/23 06:19:20;;;;;;;19.00;13.70;;;;;;;;;;105788;1290;64806;-27
2021/12/23 06:21:47;;;;;;;17.60;13.30;;;;;;;;;;105926;1293;64738;-28
2021/12/23 06:24:14;;;;;;;19.60;13.20;;;;;;;;;;105900;1289;64764;-26
2021/12/23 06:26:41;;;;;;;19.00;13.30;;;;;;;;;;105510;1294;64926;-26
2021/12/23 06:29:07;;;;;;;17.00;12.70;;;;;;;;;;105857;1291;64765;-27
2021/12/23 06:31:35;;;;;;;17.00;12.90;;;;;;;;;;105634;1293;64921;-27
2021/12/23 06:34:02;;;;;;;16.90;12.60;;;;;;;;;;105690;1293;64742;-27
2021/12/23 06:36:29;;;;;;;19.00;13.70;;;;;;;;;;105809;1291;64868;-27
2021/12/23 06:38:59;;;;;;;17.70;12.70;;;;;;;;;;105699;1294;64892;-27
2021/12/23 06:41:26;;;;;;;17.10;12.20;;;;;;;;;;105903;1293;64739;-27
2021/12/23 06:43:53;;;;;;;17.40;12.40;;;;;;;;;;105938;1291;64915;-27
2021/12/23 06:46:20;;;;;;;17.30;12.50;;;;;;;;;;105905;1291;64904;-27
2021/12/23 06:48:47;;;;;;;15.60;12.20;;;;;;;;;;105877;1294;64884;-27
2021/12/23 06:51:14;;;;;;;15.70;11.80;;;;;;;;;;105914;1291;64806;-27
2021/12/23 06:53:41;;;;;;;16.70;12.60;;;;;;;;;;105882;1290;64978;-27
2021/12/23 06:56:09;;;;;;;15.70;12.00;;;;;;;;;;105871;1291;64769;-27
2021/12/23 06:58:38;;;;;;;16.80;12.00;;;;;;;;;;105805;1292;64865;-27
2021/12/23 07:01:05;;;;;;;16.70;13.00;;;;;;;;;;105682;1295;64753;-27
2021/12/23 07:03:53;;;;;;;17.00;12.50;;;;;;;;;;105849;1290;64877;-27
2021/12/23 07:06:23;;;;;;;15.90;11.90;;;;;;;;;;105912;1292;64820;-27
2021/12/23 07:08:50;;;;;;;17.70;13.00;;;;;;;;;;105905;1293;64718;-26
2021/12/23 07:11:17;;;;;;;15.80;12.30;;;;;;;;;;105889;1294;64853;-27
2021/12/23 07:13:44;;;;;;;15.90;11.80;;;;;;;;;;105913;1289;64941;-26
2021/12/23 07:16:12;;;;;;;17.00;12.40;;;;;;;;;;105907;1291;65309;-26
2021/12/23 07:18:39;;;;;;;18.10;12.90;;;;;;;;;;105887;1292;64873;-26
2021/12/23 07:21:06;;;;;;;15.90;12.40;;;;;;;;;;105847;1294;64848;-27
2021/12/23 07:23:33;;;;;;;17.60;12.20;;;;;;;;;;105805;1290;65052;-27
2021/12/23 07:26:00;;;;;;;16.00;12.00;;;;;;;;;;105880;1292;64826;-26
2021/12/23 07:28:26;;;;;;;16.40;12.20;;;;;;;;;;105887;1292;64852;-27
2021/12/23 07:30:55;;;;;;;16.90;12.40;;;;;;;;;;105889;1293;64725;-26
2021/12/23 07:36:09;;;;;;;17.90;11.80;;;;;;;;;;105605;1296;64774;-25
2021/12/23 07:38:36;;;;;;;17.30;12.20;;;;;;;;;;105802;1291;64738;-27
2021/12/23 07:41:03;;;;;;;17.00;12.50;;;;;;;;;;105654;1295;64892;-28
2021/12/23 07:46:00;;;;;;;16.70;12.50;;;;;;;;;;105788;1294;64865;-27
2021/12/23 07:48:27;;;;;;;16.40;12.00;;;;;;;;;;105579;1292;64859;-27
2021/12/23 07:50:55;;;;;;;16.90;12.20;;;;;;;;;;105832;1292;64872;-28
2021/12/23 07:53:22;;;;;;;17.00;12.20;;;;;;;;;;105809;1290;65083;-28
2021/12/23 07:55:49;;;;;;;15.10;12.00;;;;;;;;;;105803;1293;64738;-28
2021/12/23 07:58:16;;;;;;;19.10;12.60;;;;;;;;;;105684;1290;65937;-27
2021/12/23 08:00:43;;;;;;;16.90;12.50;;;;;;;;;;105781;1294;64876;-26
2021/12/23 08:03:10;;;;;;;18.60;12.20;;;;;;;;;;105872;1291;64766;-27
2021/12/23 08:05:37;;;;;;;17.70;13.10;;;;;;;;;;105669;1294;64949;-28
2021/12/23 08:08:04;;;;;;;17.90;13.20;;;;;;;;;;105710;1292;64777;-27
2021/12/23 08:10:31;;;;;;;17.70;12.40;;;;;;;;;;105808;1290;64843;-27
2021/12/23 08:12:58;;;;;;;17.20;12.60;;;;;;;;;;105844;1294;64916;-27
2021/12/23 08:15:25;;;;;;;18.60;12.80;;;;;;;;;;105810;1291;64751;-33
2021/12/23 08:17:53;;;;;;;19.00;13.00;;;;;;;;;;105811;1294;64822;-27
2021/12/23 08:20:21;;;;;;;16.70;12.20;;;;;;;;;;105804;1294;64741;-27
2021/12/23 08:22:47;;;;;;;16.80;12.90;;;;;;;;;;105632;1295;64868;-27
2021/12/23 08:25:14;;;;;;;16.50;12.60;;;;;;;;;;105786;1295;64779;-28
2021/12/23 08:27:42;;;;;;;17.90;12.40;;;;;;;;;;105678;1288;64814;-26
2021/12/23 08:30:10;;;;;;;18.60;13.80;;;;;;;;;;105712;1293;64898;-27
2021/12/23 08:32:38;;;;;;;16.60;12.50;;;;;;;;;;105730;1293;64815;-28
2021/12/23 08:35:06;;;;;;;16.60;12.60;;;;;;;;;;105830;1291;64890;-27
2021/12/23 08:37:33;;;;;;;16.50;12.40;;;;;;;;;;105790;1293;64883;-25
2021/12/23 08:40:00;;;;;;;19.50;13.80;;;;;;;;;;105814;1292;64708;-38
2021/12/23 08:42:27;;;;;;;19.60;12.60;;;;;;;;;;105841;1293;64708;-25
2021/12/23 08:44:53;;;;;;;19.30;12.80;;;;;;;;;;105581;1294;65004;-25
2021/12/23 08:47:21;;;;;;;18.20;13.70;;;;;;;;;;105637;1294;64869;-26
2021/12/23 08:49:48;;;;;;;18.50;12.80;;;;;;;;;;105904;1289;64874;-25
2021/12/23 08:52:15;;;;;;;18.30;12.70;;;;;;;;;;105717;1296;64820;-27
2021/12/23 08:54:42;;;;;;;17.30;13.10;;;;;;;;;;105704;1293;64705;-36
2021/12/23 08:57:10;;;;;;;15.70;12.60;;;;;;;;;;105751;1293;64859;-28
2021/12/23 08:59:37;;;;;;;17.20;12.80;;;;;;;;;;105787;1294;66007;-28
2021/12/23 09:02:04;;;;;;;16.60;12.10;;;;;;;;;;105795;1285;65027;-28
2021/12/23 09:04:32;;;;;;;17.90;12.80;;;;;;;;;;105804;1294;64768;-27
2021/12/23 09:07:00;;;;;;;17.60;13.40;;;;;;;;;;105778;1293;65450;-27
2021/12/23 09:09:30;;;;;;;18.90;14.00;;;;;;;;;;105792;1291;64925;-26
2021/12/23 09:11:57;;;;;;;18.90;13.80;;;;;;;;;;105883;1292;64860;-24
2021/12/23 09:14:24;;;;;;;21.50;13.90;;;;;;;;;;105864;1292;64748;-25
2021/12/23 09:16:51;;;;;;;20.00;14.20;;;;;;;;;;105845;1294;65065;-27
2021/12/23 09:19:19;;;;;;;21.10;16.80;;;;;;;;;;105569;1293;444733;-22
2021/12/23 09:21:46;;;;;;;26.80;18.90;;;;;;;;;;105915;1291;64958;-24
2021/12/23 09:24:13;;;;;;;22.70;18.20;;;;;;;;;;105894;1289;64762;-24
2021/12/23 09:27:13;;;;;;;22.40;16.80;;;;;;;;;;105709;1297;64836;-27
2021/12/23 09:34:50;;;;;;;22.20;16.50;;;;;;;;;;105562;1294;64886;-24
2021/12/23 09:37:18;;;;;;;24.10;16.60;;;;;;;;;;105746;1296;64876;-24
2021/12/23 09:39:52;;;;;;;21.60;15.60;;;;;;;;;;105517;1296;64855;-24
2021/12/23 09:42:20;;;;;;;21.80;16.80;;;;;;;;;;105734;1296;64955;-24
2021/12/23 09:44:47;;;;;;;26.30;18.30;;;;;;;;;;105672;1295;64871;-26
2021/12/23 09:47:16;;;;;;;23.40;17.40;;;;;;;;;;105543;1295;64860;-27
2021/12/23 09:49:45;;;;;;;24.70;18.20;;;;;;;;;;105371;1295;64841;-26
2021/12/23 09:52:12;;;;;;;24.30;16.00;;;;;;;;;;105616;1291;64851;-29
2021/12/23 09:54:44;;;;;;;28.60;20.10;;;;;;;;;;105711;1294;64883;-30
2021/12/23 09:57:14;;;;;;;25.90;18.80;;;;;;;;;;105552;1295;64834;-25
2021/12/23 09:59:42;;;;;;;23.20;17.00;;;;;;;;;;105786;1293;64799;-24
2021/12/23 10:02:10;;;;;;;24.70;18.20;;;;;;;;;;105727;1295;64946;-23
2021/12/23 10:04:36;;;;;;;26.40;18.60;;;;;;;;;;105694;1295;64862;-23
2021/12/23 10:07:03;;;;;;;26.70;19.10;;;;;;;;;;105722;1296;66023;-25
2021/12/23 10:09:43;;;;;;;26.90;18.60;;;;;;;;;;105703;1296;64856;-24
2021/12/23 10:13:00;;;;;;;23.50;17.00;;;;;;;;;;105474;1292;65385;-22
2021/12/23 10:32:14;;;;;;;27.30;18.70;;;;;;;;;;105808;1291;64814;-24
2021/12/23 10:37:16;;;;;;;26.10;19.70;;;;;;;;;;105789;1293;64845;-28
2021/12/23 10:39:48;;;;;;;24.60;18.70;;;;;;;;;;105781;1294;64735;-38
2021/12/23 10:42:20;;;;;;;22.20;17.30;;;;;;;;;;105816;1295;64810;-29
2021/12/23 10:44:48;;;;;;;23.10;18.50;;;;;;;;;;105771;1296;64871;-26
2021/12/23 10:47:37;;;;;;;22.80;18.60;;;;;;;;;;105782;1293;64897;-24
2021/12/23 10:50:16;;;;;;;26.20;17.90;;;;;;;;;;105801;1295;64979;-25
2021/12/23 10:52:54;;;;;;;26.00;17.40;;;;;;;;;;105789;1293;64834;-46
2021/12/23 11:00:29;;;;;;;24.30;18.50;;;;;;;;;;105701;1293;64914;-22
2021/12/23 11:02:58;;;;;;;22.80;17.50;;;;;;;;;;105776;1290;65942;-28
2021/12/23 11:05:29;;;;;;;25.40;19.20;;;;;;;;;;105801;1293;64874;-28
2021/12/23 11:08:11;;;;;;;27.10;18.90;;;;;;;;;;105751;1295;64778;-28
2021/12/23 11:27:51;;;;;;;22.80;17.50;;;;;;;;;;105630;1296;64797;-25
2021/12/23 11:36:03;;;;;;;24.20;17.30;;;;;;;;;;105797;1290;64783;-32
2021/12/23 11:41:07;;;;;;;22.00;16.50;;;;;;;;;;105746;1294;64945;-35
2021/12/23 11:43:54;;;;;;;21.30;16.70;;;;;;;;;;105780;1292;64892;-24
2021/12/23 11:46:23;;;;;;;22.60;15.80;;;;;;;;;;105727;1292;64824;-25
2021/12/23 11:48:55;;;;;;;21.70;16.00;;;;;;;;;;105501;1293;65530;-28
2021/12/23 11:54:01;;;;;;;19.70;15.20;;;;;;;;;;105693;1294;64745;-29
2021/12/23 11:56:29;;;;;;;20.90;15.50;;;;;;;;;;105555;1293;64897;-28
2021/12/23 11:58:59;;;;;;;21.10;15.80;;;;;;;;;;105601;1294;64893;-28
2021/12/23 12:01:28;;;;;;;19.80;14.40;;;;;;;;;;105784;1292;65469;-28
2021/12/23 12:04:01;;;;;;;19.00;14.20;;;;;;;;;;105641;1295;64878;-24
2021/12/23 12:06:39;;;;;;;20.10;14.10;;;;;;;;;;105804;1295;64958;-24
2021/12/23 12:09:14;;;;;;;19.30;15.60;;;;;;;;;;105818;1295;64794;-23
2021/12/23 12:11:46;;;;;;;18.30;13.70;;;;;;;;;;105796;1292;64843;-25
2021/12/23 12:14:34;;;;;;;18.90;14.40;;;;;;;;;;105791;1294;64767;-27
2021/12/23 12:17:19;;;;;;;17.80;13.20;;;;;;;;;;105785;1294;64963;-24
2021/12/23 12:20:09;;;;;;;17.10;12.80;;;;;;;;;;105813;1292;64756;-22
2021/12/23 12:22:55;;;;;;;17.40;12.00;;;;;;;;;;105637;1295;65226;-22
2021/12/23 12:25:24;;;;;;;17.60;12.90;;;;;;;;;;105590;1296;64755;-22
2021/12/23 12:28:10;;;;;;;17.80;12.80;;;;;;;;;;105807;1291;64924;-24
2021/12/23 12:30:47;;;;;;;17.90;13.40;;;;;;;;;;105677;1290;64848;-23
2021/12/23 12:33:23;;;;;;;19.40;14.30;;;;;;;;;;105748;1290;64815;-28
2021/12/23 12:36:05;;;;;;;16.60;12.60;;;;;;;;;;105714;1291;64905;-30
2021/12/23 12:38:37;;;;;;;18.60;14.10;;;;;;;;;;105758;1293;64789;-27
2021/12/23 12:41:07;;;;;;;19.60;14.50;;;;;;;;;;105810;1291;64878;-27
2021/12/23 12:43:42;;;;;;;18.90;14.70;;;;;;;;;;105723;1291;65016;-27
2021/12/23 12:46:09;;;;;;;19.70;14.80;;;;;;;;;;106821;1291;64983;-28
2021/12/23 12:48:55;;;;;;;20.50;14.50;;;;;;;;;;105689;1295;64845;-29
2021/12/23 12:51:24;;;;;;;17.50;12.10;;;;;;;;;;105649;1293;64918;-27
2021/12/23 12:53:52;;;;;;;15.00;11.90;;;;;;;;;;105647;1292;64865;-23
2021/12/23 12:56:23;;;;;;;15.80;11.70;;;;;;;;;;105389;1297;64859;-23
2021/12/23 12:58:51;;;;;;;15.30;11.90;;;;;;;;;;105542;1292;64822;-29
2021/12/23 13:01:31;;;;;;;17.20;11.90;;;;;;;;;;105776;1295;64751;-28
2021/12/23 13:04:00;;;;;;;15.40;11.80;;;;;;;;;;105670;1296;64713;-31
2021/12/23 13:06:35;;;;;;;15.70;11.40;;;;;;;;;;105580;1293;64878;-29
2021/12/23 13:09:03;;;;;;;16.70;11.40;;;;;;;;;;105622;1292;64806;-29
2021/12/23 13:11:31;;;;;;;14.50;11.40;;;;;;;;;;105744;1295;65560;-25
2021/12/23 13:14:01;;;;;;;15.50;11.90;;;;;;;;;;105666;1293;64906;-24
2021/12/23 13:16:29;;;;;;;15.70;11.40;;;;;;;;;;105717;1293;64887;-24
2021/12/23 13:19:12;;;;;;;15.20;11.00;;;;;;;;;;105337;1295;65000;-24
2021/12/23 13:21:41;;;;;;;15.20;11.40;;;;;;;;;;105713;1296;64885;-24
2021/12/23 13:24:10;;;;;;;15.60;12.10;;;;;;;;;;105739;1291;64960;-26
2021/12/23 13:26:37;;;;;;;16.10;11.90;;;;;;;;;;105708;1294;64771;-29
2021/12/23 13:29:07;;;;;;;15.80;11.40;;;;;;;;;;105746;1293;64935;-30
2021/12/23 13:31:35;;;;;;;15.20;10.60;;;;;;;;;;105713;1293;64883;-30
2021/12/23 13:34:03;;;;;;;15.40;11.40;;;;;;;;;;105689;1296;64787;-28
2021/12/23 13:36:30;;;;;;;17.30;12.20;;;;;;;;;;105706;1292;64804;-23
2021/12/23 13:39:03;;;;;;;15.10;11.30;;;;;;;;;;105702;1295;64830;-23
2021/12/23 13:41:32;;;;;;;14.50;10.50;;;;;;;;;;105726;1291;64874;-25
2021/12/23 13:44:00;;;;;;;15.00;10.40;;;;;;;;;;105735;1294;64829;-29
2021/12/23 13:46:32;;;;;;;13.40;10.50;;;;;;;;;;105776;1293;64855;-27
2021/12/23 13:49:02;;;;;;;14.80;10.70;;;;;;;;;;105723;1292;64864;-28
2021/12/23 13:51:31;;;;;;;14.50;11.10;;;;;;;;;;105565;1287;64902;-27
2021/12/23 13:54:17;;;;;;;14.60;11.20;;;;;;;;;;105698;1295;64852;-24
2021/12/23 13:56:45;;;;;;;14.40;10.40;;;;;;;;;;105690;1294;64733;-23
2021/12/23 13:59:30;;;;;;;15.70;10.60;;;;;;;;;;105711;1296;64820;-27
2021/12/23 14:01:57;;;;;;;14.50;10.60;;;;;;;;;;105729;1293;64756;-24
2021/12/23 14:04:32;;;;;;;13.60;10.30;;;;;;;;;;105709;1292;64745;-24
2021/12/23 14:07:00;;;;;;;12.40;9.50;;;;;;;;;;105698;1294;64838;-29
2021/12/23 14:09:38;;;;;;;14.20;10.70;;;;;;;;;;105684;1292;64854;-33
2021/12/23 14:12:06;;;;;;;12.80;9.50;;;;;;;;;;105710;1293;64755;-30
2021/12/23 14:14:33;;;;;;;14.20;10.10;;;;;;;;;;105725;1288;64773;-29
2021/12/23 14:17:00;;;;;;;12.70;9.90;;;;;;;;;;105479;1297;64734;-31
2021/12/23 14:19:48;;;;;;;14.80;10.20;;;;;;;;;;105680;1291;64888;-30
2021/12/23 14:25:01;;;;;;;13.80;10.00;;;;;;;;;;105468;1293;64875;-34
2021/12/23 14:27:29;;;;;;;14.50;10.30;;;;;;;;;;105361;1299;64932;-32
2021/12/23 14:30:03;;;;;;;13.40;9.40;;;;;;;;;;105286;1290;64859;-25
2021/12/23 14:32:34;;;;;;;13.50;10.20;;;;;;;;;;105331;1295;65362;-31
2021/12/23 14:35:03;;;;;;;12.80;9.80;;;;;;;;;;105305;1292;64894;-30
2021/12/23 14:37:31;;;;;;;13.70;9.80;;;;;;;;;;105260;1297;64931;-30
2021/12/23 14:39:59;;;;;;;14.40;10.10;;;;;;;;;;105257;1298;64979;-29
2021/12/23 14:42:29;;;;;;;13.80;9.70;;;;;;;;;;105324;1298;64946;-29
2021/12/23 14:44:58;;;;;;;14.10;10.10;;;;;;;;;;105280;1294;64821;-35
2021/12/23 14:47:29;;;;;;;12.80;9.80;;;;;;;;;;105465;1297;64853;-36
2021/12/23 14:50:14;;;;;;;12.60;10.00;;;;;;;;;;105540;1294;64950;-35
2021/12/23 14:52:45;;;;;;;14.20;10.00;;;;;;;;;;105509;1294;64721;-29
2021/12/23 14:55:18;;;;;;;12.50;9.90;;;;;;;;;;105478;1294;64760;-23
2021/12/23 14:57:52;;;;;;;14.70;10.60;;;;;;;;;;105233;1297;64856;-31
2021/12/23 15:00:20;;;;;;;13.00;10.20;;;;;;;;;;105507;1293;64957;-31
2021/12/23 15:02:48;;;;;;;14.60;10.40;;;;;;;;;;105342;1296;64889;-26
2021/12/23 15:05:25;;;;;;;14.70;10.10;;;;;;;;;;105506;1293;64795;-23
2021/12/23 15:07:57;;;;;;;13.20;9.60;;;;;;;;;;105678;1290;64753;-24
2021/12/23 15:10:27;;;;;;;13.00;9.70;;;;;;;;;;105558;1293;64883;-23
2021/12/23 15:12:54;;;;;;;12.80;9.60;;;;;;;;;;105745;1291;65115;-23
2021/12/23 15:15:27;;;;;;;13.20;9.40;;;;;;;;;;105686;1291;64737;-23
2021/12/23 15:18:00;;;;;;;;;;;;;;;;;;105613;1293;64871;-29
2021/12/23 15:20:30;;;;;;;13.60;9.70;;;;;;;;;;105710;1291;64975;-30
2021/12/23 15:23:01;;;;;;;12.70;9.30;;;;;;;;;;105727;1294;64936;-23
2021/12/23 15:25:35;;;;;;;13.40;9.50;;;;;;;;;;105735;1292;64859;-23
2021/12/23 15:28:06;;;;;;;12.50;9.60;;;;;;;;;;105666;1294;65398;-29
2021/12/23 15:30:34;;;;;;;14.00;9.70;;;;;;;;;;105642;1292;64848;-29
2021/12/23 15:33:04;;;;;;;12.60;8.90;;;;;;;;;;105684;1291;64916;-30
2021/12/23 15:35:31;;;;;;;12.00;9.30;;;;;;;;;;105565;1291;64782;-29
2021/12/23 15:38:00;;;;;;;13.10;9.70;;;;;;;;;;105723;1293;64901;-24